Station info - map view · info · telemetry · weather · raw · status · beacons · messages · bulletins · browse · moving · my account
Callsign, ship name or locator: Clear       
It is possible to search using wildcards (*?) after a prefix. Example: OH*
APRS station DL5XL-9 - show graphs
Map loading...
Comment: DL5XL/m, Felix, DOK E20, dl5xl@darc.de
Mic-E message: En route
Location: 53°21.50' N 8°31.15' E - locator JO43GI25HX - show map - static map
0.8 miles Southwest bearing 225° from Sandstedt, Lower Saxony, Germany [?]
2.3 miles Northeast bearing 41° from Brake (Unterweser), Lower Saxony, Germany
22.9 miles Northwest bearing 329° from Bremen, Bremen, Germany
62.3 miles West bearing 258° from Hamburg, Hamburg, Germany
Last position: 2017-10-20 19:15:34 EDT (4h6m ago)
2017-10-21 01:15:34 CEST local time at Sandstedt, Germany [?]
Altitude: 10 ft
Course: 111°
Speed: 3 MPH
Last telemetry: 2012-06-27 11:40:07 EDT (1941d 11h41m ago) – show telemetry
Ch 1: 946, Ch 2: 3993, Ch 3: 295, Ch 4: 331, Ch 5: 4000
 1     2     3     4     5     6     7     8 
Device: Kenwood: TM-D710 (rig)
Last path: DL5XL-9>US2QU0 via WIDE1-1,WIDE2-2,qAS,DB0OL-10 (good)
Positions stored: 83596
Packet rate: 54 seconds between packets on average during 2701 seconds.
Other SSIDs: DL5XL DL5XL-10 DL5XL-5 DL5XL-7 DL5XL-8
APRS digipeater – Statistics for 2017-10:
Stations heard directly: 6 on radio path – show map
Last heard a station directly: 2017-10-20 13:02:32 EDT (10h19m ago)
Position packets heard directly: 19 on radio path
Stations near current position of DL5XL-9 - show more
callsign distance last heard - EDT      callsign distance last heard - EDT
DL5XL23.9 yards 90°2017-10-20 22:57:09 DG5BBC-94.4 miles 248°2017-10-19 11:28:45
DL2DBU4.4 miles 248°2017-10-20 15:54:40 N33400137.6 miles 171°2017-10-09 21:07:03
DB0OV-108.4 miles 346°2017-10-20 23:20:37 N33400118.6 miles 277°2017-10-13 08:34:12
N30501009.4 miles 197°2017-10-03 20:19:27 DO2EN-910.1 miles 298°2017-10-18 10:15:16
DO2EN-810.1 miles 298°2017-10-18 14:02:53 DO2EN-610.1 miles 298°2017-10-20 03:20:29
DG5YIM-910.2 miles 354°2017-10-18 02:03:52 DG5YIM10.2 miles 354°2017-09-30 09:43:02
DG3BAY-710.9 miles 24°2017-09-27 06:39:09 N334001811.0 miles 240°2017-10-10 08:32:41
DJ3AN11.4 miles 177°2017-10-20 23:20:11 DO4DSW11.4 miles 170°2017-10-15 03:55:02
DO9MHG-511.6 miles 264°2017-10-07 15:38:32 N334001611.7 miles 279°2017-10-10 20:16:46
DK3QA-1511.9 miles 11°2017-09-27 14:43:41 DO3BGW-712.0 miles 170°2017-09-30 05:13:42
Stations which heard DL5XL-9 directly on radio –
callsign pkts first heard - EDT last heard longest (tx => rx) longest at - EDT
DB0KX-2 8 2017-10-08 10:11:38 2017-10-20 16:19:14 JO31UB > JO31EG 60.8 miles 285° 2017-10-20 15:38:30
DB0RTV 4 2017-10-08 08:27:16 2017-10-20 16:46:10 JO42AJ > JO32QG 27.7 miles 254° 2017-10-08 08:27:16
DB0MYK 12 2017-10-08 10:47:28 2017-10-20 15:50:10 JO31TD > JO30OJ 56.2 miles 201° 2017-10-20 15:50:10
DB0GV 13 2017-10-08 12:14:34 2017-10-20 14:26:55 JO40IL > JO40KD 25.0 miles 164° 2017-10-20 14:26:55
DB0KT 87 2017-10-08 11:37:52 2017-10-20 14:40:00 JN49HV > JO40PL 50.1 miles 35° 2017-10-08 12:55:03
DB0IDS 7 2017-10-08 11:26:22 2017-10-20 14:54:49 JO40DQ > JO40CF 31.6 miles 183° 2017-10-20 14:54:49
DB0END 24 2017-10-08 09:37:08 2017-10-20 16:36:14 JO31TT > JO31PH 37.1 miles 201° 2017-10-20 16:36:14
DB0ASF 45 2017-10-08 11:33:55 2017-10-20 14:55:18 JO40DQ > JO40NB 55.3 miles 139° 2017-10-20 14:55:18
DK5BD-1 54 2017-10-04 13:03:20 2017-10-20 18:45:38 JO43HF > JO42IX 18.3 miles 170° 2017-10-08 06:59:10
DB0XIN 2 2017-10-08 11:35:50 2017-10-20 12:42:02 JO40FO > JN49FW 45.3 miles 181° 2017-10-08 11:35:50
DK3QA 2 2017-10-20 12:54:03 2017-10-20 13:51:04 JN49IX > JN49GU 8.9 miles 218° 2017-10-20 13:51:04
DB0DY 20 2017-10-08 08:35:19 2017-10-20 17:13:21 JO31TT > JO32WE 28.0 miles 24° 2017-10-08 09:23:38
DB0NY 28 2017-10-08 09:10:52 2017-10-20 16:12:13 JO31SV > JO31TB 58.0 miles 178° 2017-10-08 09:10:52
DO4BM-2 2 2017-10-20 17:40:20 2017-10-20 17:47:52 JO42BN > JO32WS 19.9 miles 328° 2017-10-20 17:40:20
DG4BRT-1 7 2017-10-05 10:44:58 2017-10-08 06:15:58 JO43GN > JO43BJ 22.8 miles 241° 2017-10-05 10:44:58
DB0BOS 16 2017-10-08 11:54:19 2017-10-20 14:23:30 JO40IL > JN49LR 51.6 miles 170° 2017-10-08 11:55:09
DG1RUE 3 2017-10-08 09:06:46 2017-10-20 16:56:56 JO31SW > JO32VA 10.8 miles 63° 2017-10-08 09:06:46
DD2CK 2 2017-10-08 09:54:10 2017-10-08 09:55:11 JO31QL > JO31RL 2.7 miles 93° 2017-10-08 09:54:10
DL8KZ 9 2017-10-08 10:19:39 2017-10-20 15:49:26 JO31TE > JO30PQ 38.5 miles 206° 2017-10-08 10:19:39
DB0HAT 35 2017-10-08 09:22:38 2017-10-20 16:36:11 JO31UD > JO31VQ 36.7 miles 8° 2017-10-20 15:47:46
DB3FAT 2 2017-10-08 12:13:24 2017-10-08 12:14:34 JO40IH > JO40MD 19.5 miles 129° 2017-10-08 12:13:24
DB0DAM 14 2017-10-08 07:56:42 2017-10-20 17:57:54 JO32VD > JO42CN 33.4 miles 35° 2017-10-08 08:48:35
DB0UHC 3 2017-10-08 10:23:02 2017-10-08 10:34:33 JO31UB > JO31HB 47.4 miles 270° 2017-10-08 10:34:33
PI1SGM-2 1 2017-10-08 10:09:10 2017-10-08 10:09:10 JO31SH > JO32HA 63.3 miles 322° 2017-10-08 10:09:10
DJ8HS-1 1 2017-10-20 12:49:43 2017-10-20 12:49:43 JN49HV > JO40CB 22.8 miles 295° 2017-10-20 12:49:43
DB5RRH-10 26 2017-10-04 01:33:27 2017-10-06 08:36:02 JO43GI > JO43MP 28.2 miles 44° 2017-10-04 12:05:09
DB0FDA 77 2017-10-08 11:34:01 2017-10-20 14:26:56 JO40FO > JN49HU 52.2 miles 169° 2017-10-08 11:34:01
DC4ZZ 13 2017-10-08 11:53:18 2017-10-20 14:26:55 JO40IL > JO40LC 27.7 miles 155° 2017-10-08 11:53:18
DB0ZV 12 2017-10-08 09:35:33 2017-10-20 16:14:06 JO31UO > JO31RJ 17.7 miles 208° 2017-10-08 09:35:33
DB0ROD 17 2017-10-08 07:14:22 2017-10-20 18:57:36 JO43IE > JO42QH 68.5 miles 154° 2017-10-20 18:57:36
DB0DOS-10 44 2017-10-08 08:13:14 2017-10-20 17:47:22 JO31SH > JO42AE 64.7 miles 18° 2017-10-20 16:00:26
DB0VER 1 2017-10-20 18:44:03 2017-10-20 18:44:03 JO43LB > JO42PX 14.2 miles 112° 2017-10-20 18:44:03
DB0PBS-1 1 2017-10-20 17:16:21 2017-10-20 17:16:21 JO32WF > JO41JQ 52.2 miles 131° 2017-10-20 17:16:21
DB0FBB 2 2017-10-08 09:58:07 2017-10-08 10:00:07 JO31SK > JO31RM 6.3 miles 349° 2017-10-08 10:00:07
DG7NFG-11 1 2017-10-20 14:12:43 2017-10-20 14:12:43 JO40HG > JN49PX 33.7 miles 126° 2017-10-20 14:12:43
DL1MR-10 2 2017-10-08 09:46:44 2017-10-08 09:48:46 JO31QO > JO31OP 10.3 miles 303° 2017-10-08 09:46:44
DB0EIR-10 1 2017-10-20 15:58:32 2017-10-20 15:58:32 JO31TG > JO31PH 14.8 miles 285° 2017-10-20 15:58:32
DB0RNG 11 2017-10-08 07:04:53 2017-10-20 18:44:41 JO43HA > JO43UA 44.9 miles 92° 2017-10-08 07:27:26
DB0LDK 24 2017-10-08 11:13:42 2017-10-20 15:03:44 JO40BS > JO40GM 23.7 miles 136° 2017-10-08 11:13:42
DB0NLH 2 2017-10-08 08:57:47 2017-10-20 17:36:21 JO32TB > JO42DC 27.7 miles 84° 2017-10-08 08:57:47
DB0GIE-10 2 2017-10-08 10:22:02 2017-10-08 10:52:01 JO31UD > JO30FK 72.9 miles 229° 2017-10-08 10:22:02
DF4DR-10 34 2017-10-08 09:20:36 2017-10-20 16:30:09 JO31TU > JO31SM 22.1 miles 189° 2017-10-08 09:20:36
DB0ENL-10 10 2017-10-08 09:48:02 2017-10-20 16:16:05 JO31QO > JO31QG 20.3 miles 181° 2017-10-08 09:48:02
DL1JU-13 4 2017-10-08 12:34:18 2017-10-20 13:56:21 JO40IB > JO40EA 17.3 miles 260° 2017-10-20 13:56:21
DL7FCG 1 2017-10-08 12:14:34 2017-10-08 12:14:34 JO40IH > JO40MD 19.4 miles 126° 2017-10-08 12:14:34
DB0NIS-10 4 2017-10-08 10:47:25 2017-10-20 15:37:28 JO40AT > JO30EP 74.0 miles 262° 2017-10-08 11:08:40
DB0OL-10 159 2017-10-01 15:37:18 2017-10-20 19:15:34 JO42BO > JO43CD 37.9 miles 8° 2017-10-20 17:48:54
DB0KU-10 11 2017-10-08 10:14:08 2017-10-20 15:51:40 JO30XV > JO41BE 23.5 miles 16° 2017-10-20 15:20:15
DB0NX-10 12 2017-10-08 09:13:46 2017-10-20 16:33:09 JO31SU > JO31TH 37.7 miles 177° 2017-10-08 09:13:46
DL2YCP-10 9 2017-10-08 09:10:46 2017-10-20 16:36:09 JO31TM > JO31SR 15.2 miles 335° 2017-10-20 16:20:10
DB0SWR-10 1 2017-10-08 12:14:34 2017-10-08 12:14:34 JO40IH > JN49RQ 55.2 miles 140° 2017-10-08 12:14:34
DB0TV-10 8 2017-10-08 10:05:12 2017-10-20 16:15:05 JO31TL > JO31QH 13.6 miles 219° 2017-10-20 16:15:05
DG4DAA-13 11 2017-10-08 09:09:46 2017-10-08 09:41:03 JO31SV > JO31XO 26.6 miles 141° 2017-10-08 09:09:46
DO1TBO-13 1 2017-10-08 08:38:20 2017-10-08 08:38:20 JO32XG > JO42BG 8.6 miles 89° 2017-10-08 08:38:20
DB0EJ 52 2017-10-08 12:19:24 2017-10-20 14:12:43 JN49HV > JO40GD 17.3 miles 352° 2017-10-08 12:53:30
DL6SIX-6 1 2017-10-20 12:53:05 2017-10-20 12:53:05 JN49HV > JN49IU 6.5 miles 140° 2017-10-20 12:53:05
DB0GIS-10 35 2017-10-08 11:14:10 2017-10-20 14:50:12 JO40BS > JO40JN 31.0 miles 120° 2017-10-08 11:14:10
DB0GM 3 2017-10-08 10:36:03 2017-10-20 15:38:28 JO31VB > JO30SX 10.5 miles 246° 2017-10-20 15:36:28
DO0LEE 1 2017-10-20 13:09:31 2017-10-20 13:09:31 JN49IX > JN49FU 12.6 miles 236° 2017-10-20 13:09:31
DF1QQ-10 21 2017-10-08 08:44:34 2017-10-20 17:15:20 JO31SW > JO32SD 13.7 miles 359° 2017-10-08 09:08:46
DB0EMS-5 1 2017-10-08 08:00:37 2017-10-08 08:00:37 JO42CR > JO32SU 28.6 miles 289° 2017-10-08 08:00:37
DB0OV-10 179 2017-10-01 15:30:32 2017-10-20 19:14:41 JO43HG > JO43FL 14.4 miles 334° 2017-10-20 19:04:06

Only position packets which were originated by the station are shown here. The range statistics show some extra long hops, because some digipeaters do not correctly add themselves to the digipeater path. Please check the raw packets.
Stations heard directly by DL5XL-9
callsign pkts first heard - EDT last heard longest (rx => tx) longest at - EDT
DO2FAH 1 2017-10-08 11:50:07 2017-10-08 11:50:07 JO40IA > JO40HM 34.1 miles 176° 2017-10-08 11:50:07
DF7PN-9 1 2017-10-20 13:02:32 2017-10-20 13:02:32 JN49CX > JN49HV 20.8 miles 284° 2017-10-20 13:02:32
SQ3TGN-14 3 2017-10-04 08:17:54 2017-10-04 08:25:32 JO43HF > JO43GM 20.9 miles 174° 2017-10-04 08:17:54
DF1QU-9 11 2017-10-04 05:45:32 2017-10-04 06:21:50 JO43GO > JO43GM 4.4 miles 339° 2017-10-04 05:47:15
DG8DCH-7 1 2017-10-08 10:09:02 2017-10-08 10:09:02 JO31RI > JO31SH 4.4 miles 303° 2017-10-08 10:09:02
DL5HCR-9 2 2017-10-06 08:38:50 2017-10-06 08:41:29 JO43JL > JO43HK 7.3 miles 82° 2017-10-06 08:38:50

Only stations from which a position packet has been heard are shown here. The range statistics show some extra long hops, because some digipeaters do not correctly add themselves to the digipeater path. Please check the raw packets.
About this site
This page shows real-time information collected from the Automatic Position Reporting System Internet network (APRS-IS). APRS is used by amateur (ham) radio operators to transmit real-time position information, weather data, telemetry and messages over the radio. A vehicle equipped with a GPS receiver, a VHF transmitter or HF transceiver and a small computer device called a tracker transmits it's location, speed and course in a small data packet, which is then received by a nearby iGate receiving site which forwards the packet on the Internet. Systems connected to the Internet can send information on the APRS-IS without a radio transmitter, or collect and display information transmitted anywhere in the world.
FAQ · Blog · Discussion group · Linking to aprs.fi · AIS sites · Service status · Database statistics · Advertising on aprs.fi · Technical details · API · Change log · Planned changes · Credits and thanks · Terms Of Service · iPhone/iPad APRS